createdAt,value
2023-01-13T00:01:56.201Z,99470.48
2023-01-13T00:06:58.993Z,99467.65
2023-01-13T00:12:01.818Z,99461.16
2023-01-13T00:17:05.158Z,99448.83
2023-01-13T00:22:07.973Z,99444.88
2023-01-13T00:27:11.214Z,99443.45
2023-01-13T00:32:13.882Z,99445.91
2023-01-13T00:37:16.754Z,99447.35
2023-01-13T00:42:38.853Z,99444.19
2023-01-13T00:47:41.603Z,99442.34
2023-01-13T00:52:44.384Z,99435.17
2023-01-13T00:57:47.172Z,99433.15
2023-01-13T01:02:49.984Z,99429.23
2023-01-13T01:07:52.783Z,99426.15
2023-01-13T01:12:55.562Z,99416.80
2023-01-13T01:17:58.349Z,99415.90
2023-01-13T01:23:01.168Z,99409.59
2023-01-13T01:28:04.034Z,99403.89
2023-01-13T01:33:06.859Z,99402.42
2023-01-13T01:38:09.596Z,99391.93
2023-01-13T01:43:36.441Z,99383.54
2023-01-13T01:48:42.467Z,99379.64
2023-01-13T01:53:45.531Z,99373.73
2023-01-13T01:58:51.659Z,99366.23
2023-01-13T02:04:11.364Z,99357.59
2023-01-13T02:09:14.884Z,99348.14
2023-01-13T02:14:18.706Z,99341.23
2023-01-13T02:20:04.429Z,99334.04
2023-01-13T02:25:42.407Z,99330.02
2023-01-13T02:31:18.274Z,99323.27
2023-01-13T02:36:39.848Z,99313.70
2023-01-13T02:42:24.119Z,99312.94
2023-01-13T02:47:30.774Z,99314.13
2023-01-13T02:52:39.561Z,99302.27
2023-01-13T02:57:44.404Z,99296.20
2023-01-13T03:02:48.960Z,99285.15
2023-01-13T03:08:06.926Z,99277.20
2023-01-13T03:13:12.297Z,99272.40
2023-01-13T03:18:17.763Z,99264.04
2023-01-13T03:23:37.781Z,99261.95
2023-01-13T03:28:49.480Z,99253.98
2023-01-13T03:33:57.681Z,99249.00
2023-01-13T03:39:07.803Z,99243.02
2023-01-13T03:44:27.577Z,99237.06
2023-01-13T03:49:41.854Z,99237.48
2023-01-13T03:54:52.341Z,99231.33
2023-01-13T03:59:58.895Z,99227.25
2023-01-13T04:05:06.538Z,99223.86
2023-01-13T04:10:11.360Z,99220.17
2023-01-13T04:15:15.692Z,99217.36
2023-01-13T04:20:18.485Z,99210.88
2023-01-13T04:25:21.224Z,99208.66
2023-01-13T04:30:24.020Z,99203.55
2023-01-13T04:35:26.766Z,99201.20
2023-01-13T04:40:29.621Z,99199.57
2023-01-13T04:45:34.653Z,99197.77
2023-01-13T04:50:37.472Z,99201.25
2023-01-13T04:55:40.290Z,99196.33
2023-01-13T05:00:43.291Z,99196.70
2023-01-13T05:05:46.127Z,99200.04
2023-01-13T05:10:48.961Z,99193.88
2023-01-13T05:16:23.885Z,99193.32
2023-01-13T05:21:45.629Z,99196.11
2023-01-13T05:26:48.499Z,99195.03
2023-01-13T05:31:51.272Z,99193.77
2023-01-13T05:36:54.519Z,99196.18
2023-01-13T05:42:16.254Z,99195.36
2023-01-13T05:47:19.037Z,99199.37
2023-01-13T05:52:25.066Z,99196.53
2023-01-13T05:57:28.427Z,99201.13
2023-01-13T06:02:31.269Z,99200.92
2023-01-13T06:07:34.234Z,99201.09
2023-01-13T06:12:37.246Z,99201.66
2023-01-13T06:17:44.791Z,99205.25
2023-01-13T06:22:51.031Z,99202.80
2023-01-13T06:27:55.457Z,99203.66
2023-01-13T06:33:01.867Z,99208.46
2023-01-13T06:38:10.761Z,99210.73
2023-01-13T06:43:17.202Z,99200.73
2023-01-13T06:48:23.550Z,99209.23
2023-01-13T06:53:26.571Z,99204.59
2023-01-13T06:58:29.420Z,99207.75
2023-01-13T07:03:40.240Z,99217.27
2023-01-13T07:08:43.567Z,99222.90
2023-01-13T07:14:04.741Z,99224.23
2023-01-13T07:19:09.376Z,99228.81
2023-01-13T07:24:16.936Z,99236.21
2023-01-13T07:29:19.807Z,99230.58
2023-01-13T07:34:22.731Z,99238.30
2023-01-13T07:39:25.985Z,99241.79
2023-01-13T07:44:34.374Z,99240.15
2023-01-13T07:49:44.934Z,99246.01
2023-01-13T08:00:21.759Z,99251.48
2023-01-13T08:05:24.444Z,99252.20
2023-01-13T08:10:27.291Z,99256.13
2023-01-13T08:15:32.201Z,99261.27
2023-01-13T08:20:35.627Z,99261.48
2023-01-13T08:25:39.023Z,99267.94
2023-01-13T08:30:44.568Z,99271.31
2023-01-13T08:35:53.132Z,99282.73
2023-01-13T08:40:56.533Z,99283.94
2023-01-13T08:46:01.216Z,99283.22
2023-01-13T08:51:09.309Z,99290.23
2023-01-13T08:56:14.780Z,99298.64
2023-01-13T09:01:22.552Z,99302.59
2023-01-13T09:06:37.255Z,99307.90
2023-01-13T09:12:08.205Z,99311.55
2023-01-13T09:17:11.283Z,99315.85
2023-01-13T09:22:15.315Z,99313.77
2023-01-13T09:27:18.068Z,99313.21
2023-01-13T09:32:21.018Z,99312.94
2023-01-13T09:37:26.428Z,99311.17
2023-01-13T09:43:15.833Z,99307.25
2023-01-13T09:49:09.560Z,99310.62
2023-01-13T09:54:32.603Z,99315.99
2023-01-13T09:59:36.993Z,99314.04
2023-01-13T10:04:39.833Z,99309.95
2023-01-13T10:09:52.334Z,99299.50
2023-01-13T10:15:02.668Z,99295.56
2023-01-13T10:20:33.061Z,99290.34
2023-01-13T10:26:04.486Z,99283.25
2023-01-13T10:31:19.030Z,99280.11
2023-01-13T10:36:23.540Z,99287.96
2023-01-13T10:41:29.251Z,99286.75
2023-01-13T10:46:54.551Z,99295.70
2023-01-13T10:51:58.183Z,99292.96
2023-01-13T10:57:26.980Z,99298.13
2023-01-13T11:02:37.584Z,99302.95
2023-01-13T11:07:50.466Z,99304.80
2023-01-13T11:13:13.757Z,99299.63
2023-01-13T11:19:03.059Z,99290.13
2023-01-13T11:24:20.236Z,99287.48
2023-01-13T11:29:38.808Z,99296.73
2023-01-13T11:34:45.351Z,99295.09
2023-01-13T11:40:12.677Z,99290.18
2023-01-13T11:46:00.837Z,99296.67
2023-01-13T11:51:10.348Z,99288.34
2023-01-13T11:56:42.420Z,99294.20
2023-01-13T12:01:48.406Z,99300.70
2023-01-13T12:07:12.952Z,99310.00
2023-01-13T12:12:54.803Z,99299.80
2023-01-13T12:18:16.667Z,99297.93
2023-01-13T12:23:32.451Z,99298.79
2023-01-13T12:28:41.759Z,99296.45
2023-01-13T12:33:50.327Z,99294.41
2023-01-13T12:38:58.854Z,99293.91
2023-01-13T12:44:17.597Z,99303.84
2023-01-13T12:49:26.586Z,99302.27
2023-01-13T12:54:41.252Z,99300.67
2023-01-13T12:59:49.896Z,99311.89
2023-01-13T13:05:20.022Z,99308.15
2023-01-13T13:10:36.129Z,99309.77
2023-01-13T13:15:39.026Z,99314.46
2023-01-13T13:21:05.006Z,99314.77
2023-01-13T13:26:24.935Z,99309.09
2023-01-13T13:31:45.464Z,99321.45
2023-01-13T13:37:11.049Z,99325.36
2023-01-13T13:42:55.930Z,99330.62
2023-01-13T13:48:24.040Z,99331.59
2023-01-13T13:53:30.063Z,99330.29
2023-01-13T13:58:37.081Z,99340.22
2023-01-13T14:03:40.372Z,99338.11
2023-01-13T14:08:50.212Z,99338.57
2023-01-13T14:14:07.346Z,99330.10
2023-01-13T14:19:35.517Z,99334.36
2023-01-13T14:24:47.598Z,99335.38
2023-01-13T14:29:55.245Z,99331.98
2023-01-13T14:34:59.452Z,99338.14
2023-01-13T14:40:02.667Z,99340.20
2023-01-13T14:45:21.436Z,99340.21
2023-01-13T14:50:31.671Z,99341.95
2023-01-13T14:55:41.417Z,99331.06
2023-01-13T15:00:44.475Z,99329.57
2023-01-13T15:05:51.293Z,99328.46
2023-01-13T15:11:00.265Z,99334.02
2023-01-13T15:16:07.088Z,99332.23
2023-01-13T15:21:10.637Z,99336.48
2023-01-13T15:26:25.925Z,99340.51
2023-01-13T15:31:29.136Z,99344.80
2023-01-13T15:36:34.254Z,99341.70
2023-01-13T15:41:55.882Z,99346.85
2023-01-13T15:47:01.500Z,99352.38
2023-01-13T15:52:14.937Z,99357.48
2023-01-13T15:57:33.070Z,99356.72
2023-01-13T16:02:35.964Z,99356.33
2023-01-13T16:07:39.984Z,99360.42
2023-01-13T16:12:42.759Z,99355.79
2023-01-13T16:17:46.591Z,99346.58
2023-01-13T16:22:49.486Z,99335.36
2023-01-13T16:27:53.011Z,99337.88
2023-01-13T16:32:56.178Z,99340.95
2023-01-13T16:37:59.964Z,99336.41
2023-01-13T16:43:04.748Z,99338.74
2023-01-13T16:48:19.677Z,99347.07
2023-01-13T16:53:22.450Z,99358.85
2023-01-13T16:58:25.337Z,99357.73
2023-01-13T17:03:29.924Z,99356.23
2023-01-13T17:08:32.761Z,99365.41
2023-01-13T17:13:35.537Z,99369.40
2023-01-13T17:18:38.249Z,99369.41
2023-01-13T17:23:41.268Z,99370.00
2023-01-13T17:28:46.287Z,99378.95
2023-01-13T17:33:49.048Z,99380.57
2023-01-13T17:38:52.426Z,99390.08
2023-01-13T17:43:55.303Z,99388.46
2023-01-13T17:48:58.148Z,99385.41
2023-01-13T17:54:00.908Z,99393.35
2023-01-13T17:59:04.278Z,99386.68
2023-01-13T18:04:09.547Z,99391.94
2023-01-13T18:09:12.784Z,99396.98
2023-01-13T18:14:16.443Z,99403.75
2023-01-13T18:19:38.518Z,99410.27
2023-01-13T18:25:00.280Z,99412.73
2023-01-13T18:30:04.766Z,99411.41
2023-01-13T18:35:10.443Z,99420.44
2023-01-13T18:40:14.102Z,99427.27
2023-01-13T18:45:18.612Z,99432.83
2023-01-13T18:50:22.522Z,99430.70
2023-01-13T18:55:27.213Z,99440.52
2023-01-13T19:00:36.450Z,99445.15
2023-01-13T19:05:39.246Z,99445.37
2023-01-13T19:10:42.096Z,99454.46
2023-01-13T19:15:44.816Z,99462.94
2023-01-13T19:20:47.513Z,99467.67
2023-01-13T19:25:50.251Z,99473.41
2023-01-13T19:30:53.331Z,99478.70
2023-01-13T19:35:56.656Z,99476.92
2023-01-13T19:41:07.343Z,99481.71
2023-01-13T19:46:10.759Z,99483.56
2023-01-13T19:51:14.702Z,99486.40
2023-01-13T19:56:17.435Z,99488.33
2023-01-13T20:01:21.122Z,99488.56
2023-01-13T20:06:23.989Z,99489.48
2023-01-13T20:11:31.174Z,99499.45
2023-01-13T20:16:33.978Z,99498.93
2023-01-13T20:21:37.849Z,99504.15
2023-01-13T20:26:40.685Z,99505.42
2023-01-13T20:31:43.553Z,99507.67
2023-01-13T20:36:49.320Z,99506.77
2023-01-13T20:42:11.353Z,99515.36
2023-01-13T20:47:14.549Z,99512.63
2023-01-13T20:52:17.461Z,99521.25
2023-01-13T20:57:20.212Z,99523.53
2023-01-13T21:02:24.426Z,99523.14
2023-01-13T21:07:28.337Z,99525.58
2023-01-13T21:12:49.841Z,99526.75
2023-01-13T21:18:11.173Z,99530.44
2023-01-13T21:23:13.885Z,99524.05
2023-01-13T21:28:18.319Z,99522.63
2023-01-13T21:33:22.047Z,99531.63
2023-01-13T21:38:27.294Z,99535.38
2023-01-13T21:43:49.065Z,99532.41
2023-01-13T21:48:52.101Z,99526.77
2023-01-13T21:53:56.797Z,99523.56
2023-01-13T21:59:00.138Z,99523.21
2023-01-13T22:04:13.100Z,99524.47
2023-01-13T22:09:15.920Z,99523.44
2023-01-13T22:14:18.822Z,99529.73
2023-01-13T22:19:21.784Z,99532.48
2023-01-13T22:24:25.494Z,99532.08
2023-01-13T22:29:28.175Z,99534.81
2023-01-13T22:34:32.551Z,99542.79
2023-01-13T22:39:36.067Z,99550.74
2023-01-13T22:44:38.835Z,99553.28
2023-01-13T22:49:43.150Z,99564.58
2023-01-13T22:54:45.889Z,99571.77
2023-01-13T22:59:48.615Z,99575.38
2023-01-13T23:04:51.406Z,99574.83
2023-01-13T23:09:54.165Z,99569.91
2023-01-13T23:14:56.854Z,99573.10
2023-01-13T23:19:59.536Z,99573.45
2023-01-13T23:25:02.255Z,99577.14
2023-01-13T23:30:07.800Z,99578.27
2023-01-13T23:35:10.527Z,99576.48
2023-01-13T23:40:13.580Z,99573.92
2023-01-13T23:45:16.331Z,99569.29
2023-01-13T23:50:19.043Z,99570.66
2023-01-13T23:55:21.788Z,99570.85
